Time;durP1;ratioP1;P1;durP2;ratioP2;P2;SDS_P1;SDS_P2;PMS_P1;PMS_P2;Temp;Humidity;BMP_temperature;BMP_pressure;BME280_temperature;BME280_humidity;BME280_pressure;Samples;Min_cycle;Max_cycle;Signal;HPM_P1;HPM_P2
2020/12/17 00:01:12;;;;;;;43.27;25.47;;;8.30;99.90;;;;;;5063801;28;20213;-84
2020/12/17 00:03:37;;;;;;;43.20;23.57;;;8.30;99.90;;;;;;5062685;28;20539;-83
2020/12/17 00:06:03;;;;;;;48.47;27.27;;;8.20;99.90;;;;;;5062666;28;20256;-82
2020/12/17 00:08:28;;;;;;;42.30;25.47;;;8.20;99.90;;;;;;5063473;28;20200;-82
2020/12/17 00:10:54;;;;;;;45.33;24.83;;;8.10;99.90;;;;;;5062152;28;20174;-84
2020/12/17 00:13:21;;;;;;;48.00;26.80;;;8.10;99.90;;;;;;5057710;28;20181;-79
2020/12/17 00:15:48;;;;;;;41.70;25.60;;;8.00;99.90;;;;;;5061099;28;20411;-81
2020/12/17 00:18:13;;;;;;;45.97;26.73;;;7.90;99.90;;;;;;5061915;28;20408;-82
2020/12/17 00:20:39;;;;;;;48.80;27.60;;;7.90;99.90;;;;;;5061484;28;20440;-84
2020/12/17 00:23:04;;;;;;;45.80;24.70;;;7.90;99.90;;;;;;5063148;28;20273;-83
2020/12/17 00:25:30;;;;;;;45.33;25.47;;;7.90;99.90;;;;;;5062733;28;20219;-83
2020/12/17 00:27:55;;;;;;;46.83;25.23;;;8.00;99.90;;;;;;5061753;28;20212;-83
2020/12/17 00:30:22;;;;;;;48.23;26.80;;;7.90;99.90;;;;;;5052101;28;20213;-84
2020/12/17 00:32:48;;;;;;;42.30;24.43;;;7.90;99.90;;;;;;5063495;28;20176;-83
2020/12/17 00:35:15;;;;;;;46.00;27.67;;;8.00;99.90;;;;;;5061858;28;20423;-84
2020/12/17 00:37:41;;;;;;;53.97;25.37;;;8.00;99.90;;;;;;5061601;28;20422;-82
2020/12/17 00:40:16;;;;;;;37.03;22.10;;;8.00;99.90;;;;;;5063371;28;20415;-83
2020/12/17 00:42:46;;;;;;;42.93;25.17;;;7.90;99.90;;;;;;5062938;28;20177;-84
2020/12/17 00:45:14;;;;;;;43.50;24.60;;;7.90;99.90;;;;;;5062406;28;20439;-83
2020/12/17 00:47:40;;;;;;;50.20;26.50;;;7.80;99.90;;;;;;5061242;28;20401;-84
2020/12/17 00:50:07;;;;;;;47.50;24.60;;;7.80;99.90;;;;;;5062725;28;20411;-85
2020/12/17 00:52:37;;;;;;;44.77;24.80;;;7.70;99.90;;;;;;5061060;28;20996;-81
2020/12/17 00:55:04;;;;;;;47.63;26.23;;;7.70;99.90;;;;;;5061274;28;20424;-82
2020/12/17 00:57:29;;;;;;;52.13;25.13;;;7.70;99.90;;;;;;5063934;28;20416;-82
2020/12/17 00:59:55;;;;;;;51.23;27.60;;;7.60;99.90;;;;;;5061292;28;20415;-81
2020/12/17 01:02:20;;;;;;;55.23;25.90;;;7.70;99.90;;;;;;5062487;28;20248;-82
2020/12/17 01:04:47;;;;;;;48.33;26.60;;;7.70;99.90;;;;;;5061465;28;20683;-83
2020/12/17 01:07:12;;;;;;;51.03;26.93;;;7.70;99.90;;;;;;5061064;28;20169;-82
2020/12/17 01:09:39;;;;;;;48.23;24.53;;;7.70;99.90;;;;;;5062589;28;20543;-83
2020/12/17 01:12:06;;;;;;;44.27;24.40;;;7.70;99.90;;;;;;5045675;28;20180;-82
2020/12/17 01:14:33;;;;;;;46.17;25.37;;;7.70;99.90;;;;;;5061416;28;20419;-82
2020/12/17 01:17:04;;;;;;;46.53;24.30;;;7.70;99.90;;;;;;5061481;28;20411;-84
2020/12/17 01:19:30;;;;;;;37.67;21.50;;;7.70;99.90;;;;;;5061581;28;20423;-82
2020/12/17 01:21:55;;;;;;;42.13;23.27;;;7.70;99.90;;;;;;5060563;28;20415;-83
2020/12/17 01:24:21;;;;;;;45.07;24.57;;;7.60;99.90;;;;;;5062536;28;20415;-82
2020/12/17 01:26:47;;;;;;;41.43;22.73;;;7.50;99.90;;;;;;5044028;28;20169;-84
2020/12/17 01:29:12;;;;;;;42.57;23.57;;;7.50;99.90;;;;;;5061453;28;20677;-83
2020/12/17 01:31:38;;;;;;;39.77;21.13;;;7.40;99.90;;;;;;5043880;28;20672;-83
2020/12/17 01:34:03;;;;;;;45.97;25.70;;;7.40;99.90;;;;;;5062419;28;20173;-83
2020/12/17 01:36:29;;;;;;;42.97;23.00;;;7.40;99.90;;;;;;5061507;28;20570;-83
2020/12/17 01:38:55;;;;;;;40.60;21.93;;;7.40;99.90;;;;;;5061767;28;20197;-83
2020/12/17 01:41:20;;;;;;;44.50;23.27;;;7.30;99.90;;;;;;5060233;28;20626;-83
2020/12/17 01:43:47;;;;;;;48.60;24.90;;;7.40;99.90;;;;;;5061906;28;20415;-81
2020/12/17 01:46:14;;;;;;;48.17;25.33;;;7.40;99.90;;;;;;5061801;28;20610;-83
2020/12/17 01:48:41;;;;;;;47.20;24.57;;;7.40;99.90;;;;;;5060266;28;20470;-81
2020/12/17 01:51:08;;;;;;;42.23;24.03;;;7.40;99.90;;;;;;5061773;28;20435;-80
2020/12/17 01:53:39;;;;;;;49.43;22.30;;;7.50;99.90;;;;;;5043563;28;20477;-81
2020/12/17 01:56:09;;;;;;;49.00;25.93;;;7.50;99.90;;;;;;5061630;28;20511;-81
2020/12/17 01:58:40;;;;;;;42.53;24.43;;;7.50;99.90;;;;;;5042672;28;20424;-81
2020/12/17 02:01:10;;;;;;;46.30;25.60;;;7.50;99.90;;;;;;5060234;28;20460;-81
2020/12/17 02:03:36;;;;;;;44.23;22.53;;;7.60;99.90;;;;;;5060513;28;20416;-80
2020/12/17 02:06:01;;;;;;;45.50;24.73;;;7.60;99.90;;;;;;5062229;28;20460;-81
2020/12/17 02:08:34;;;;;;;45.63;24.23;;;7.60;99.90;;;;;;5060401;28;20213;-80
2020/12/17 02:11:01;;;;;;;44.53;24.47;;;7.60;99.90;;;;;;5060276;28;20192;-80
2020/12/17 02:13:33;;;;;;;42.17;23.50;;;7.60;99.90;;;;;;5061684;28;20498;-80
2020/12/17 02:16:00;;;;;;;39.00;22.40;;;7.70;99.90;;;;;;5062239;28;20415;-80
2020/12/17 02:18:26;;;;;;;43.27;22.27;;;7.70;99.90;;;;;;5060690;28;20419;-81
2020/12/17 02:20:54;;;;;;;40.27;22.77;;;7.70;99.90;;;;;;5043054;28;20514;-80
2020/12/17 02:23:20;;;;;;;44.40;21.67;;;7.70;99.90;;;;;;5060994;28;20507;-81
2020/12/17 02:25:45;;;;;;;38.87;22.83;;;7.60;99.90;;;;;;5065532;28;20982;-80
2020/12/17 02:28:11;;;;;;;45.17;24.40;;;7.70;99.90;;;;;;5065120;28;20531;-81
2020/12/17 02:30:36;;;;;;;36.07;22.07;;;7.70;99.90;;;;;;5046151;28;20660;-80
2020/12/17 02:33:02;;;;;;;49.90;24.60;;;7.60;99.90;;;;;;5063894;28;20259;-80
2020/12/17 02:35:28;;;;;;;42.20;23.37;;;7.60;99.90;;;;;;5046548;28;20170;-81
2020/12/17 02:37:53;;;;;;;38.00;21.60;;;7.60;99.90;;;;;;5075389;28;20173;-80
2020/12/17 02:40:19;;;;;;;36.20;21.80;;;7.60;99.90;;;;;;5064280;28;20327;-80
2020/12/17 02:42:44;;;;;;;39.63;21.10;;;7.60;99.90;;;;;;5066610;28;20173;-81
2020/12/17 02:45:10;;;;;;;38.37;22.40;;;7.60;99.90;;;;;;5060095;28;20180;-81
2020/12/17 02:47:35;;;;;;;43.40;22.57;;;7.60;99.90;;;;;;5056400;28;20169;-80
2020/12/17 02:50:03;;;;;;;32.17;19.57;;;7.60;99.90;;;;;;5059548;28;20170;-80
2020/12/17 02:52:29;;;;;;;45.00;22.93;;;7.60;99.90;;;;;;5064194;28;20173;-81
2020/12/17 02:54:54;;;;;;;36.80;20.83;;;7.60;99.90;;;;;;5064888;28;20416;-81
2020/12/17 02:57:20;;;;;;;37.93;20.50;;;7.60;99.90;;;;;;5063308;28;20190;-80
2020/12/17 02:59:45;;;;;;;42.47;23.97;;;7.60;99.90;;;;;;5065016;28;20516;-80
2020/12/17 03:02:11;;;;;;;37.50;21.70;;;7.50;99.90;;;;;;5064188;28;20218;-80
2020/12/17 03:04:36;;;;;;;34.43;20.93;;;7.50;99.90;;;;;;5063519;28;20165;-80
2020/12/17 03:07:02;;;;;;;35.90;21.70;;;7.50;99.90;;;;;;5065089;28;20176;-80
2020/12/17 03:09:27;;;;;;;28.37;17.67;;;7.50;99.90;;;;;;5063949;28;20233;-83
2020/12/17 03:11:53;;;;;;;31.93;18.73;;;7.50;99.90;;;;;;5063744;28;20260;-82
2020/12/17 03:14:19;;;;;;;44.53;21.03;;;7.50;99.90;;;;;;5063650;28;20234;-83
2020/12/17 03:16:44;;;;;;;41.00;22.70;;;7.50;99.90;;;;;;5063157;28;20200;-81
2020/12/17 03:19:10;;;;;;;39.17;22.43;;;7.50;99.90;;;;;;5064167;28;20173;-81
2020/12/17 03:21:36;;;;;;;35.60;20.43;;;7.50;99.90;;;;;;5064314;28;20170;-83
2020/12/17 03:24:01;;;;;;;38.77;21.80;;;7.50;99.90;;;;;;5062872;28;20182;-84
2020/12/17 03:26:27;;;;;;;45.83;23.70;;;7.50;99.90;;;;;;5064320;28;20169;-82
2020/12/17 03:28:52;;;;;;;40.03;21.90;;;7.50;99.90;;;;;;5064165;28;20676;-85
2020/12/17 03:31:18;;;;;;;34.37;20.23;;;7.50;99.90;;;;;;5062803;28;20178;-81
2020/12/17 03:33:44;;;;;;;38.83;20.97;;;7.50;99.90;;;;;;5064565;28;20169;-84
2020/12/17 03:36:09;;;;;;;37.60;22.23;;;7.40;99.90;;;;;;5063325;28;20170;-83
2020/12/17 03:38:35;;;;;;;37.23;19.97;;;7.40;99.90;;;;;;5055290;28;20172;-83
2020/12/17 03:41:00;;;;;;;38.30;21.33;;;7.50;99.90;;;;;;5062475;28;20176;-83
2020/12/17 03:43:26;;;;;;;34.07;22.10;;;7.50;99.90;;;;;;5068487;28;20239;-82
2020/12/17 03:45:52;;;;;;;37.10;21.10;;;7.50;99.90;;;;;;5074836;28;20598;-83
2020/12/17 03:48:17;;;;;;;42.70;23.30;;;7.40;99.90;;;;;;5074618;28;20684;-80
2020/12/17 03:50:43;;;;;;;36.17;20.10;;;7.40;99.90;;;;;;5074754;28;20169;-81
2020/12/17 03:53:08;;;;;;;33.07;21.40;;;7.50;99.90;;;;;;5074385;28;20227;-82
2020/12/17 03:55:34;;;;;;;34.70;20.83;;;7.40;99.90;;;;;;5063401;28;20174;-82
2020/12/17 03:57:59;;;;;;;38.00;21.27;;;7.40;99.90;;;;;;5074231;28;20515;-82
2020/12/17 04:00:25;;;;;;;37.87;22.40;;;7.40;99.90;;;;;;5074334;28;20224;-81
2020/12/17 04:02:50;;;;;;;31.97;20.30;;;7.40;99.90;;;;;;5074613;28;20164;-82
2020/12/17 04:05:16;;;;;;;34.30;20.50;;;7.40;99.90;;;;;;5045199;28;20190;-82
2020/12/17 04:07:42;;;;;;;37.60;19.93;;;7.40;99.90;;;;;;5054027;28;20172;-82
2020/12/17 04:10:07;;;;;;;32.97;19.70;;;7.40;99.90;;;;;;5054411;28;20256;-82
2020/12/17 04:12:33;;;;;;;42.20;22.00;;;7.30;99.90;;;;;;5054286;28;20711;-83
2020/12/17 04:14:58;;;;;;;36.07;20.37;;;7.30;99.90;;;;;;5057631;28;20178;-81
2020/12/17 04:17:24;;;;;;;35.60;19.17;;;7.30;99.90;;;;;;5036376;28;20507;-82
2020/12/17 04:19:49;;;;;;;35.10;20.10;;;7.40;99.90;;;;;;5054281;28;20170;-82
2020/12/17 04:22:18;;;;;;;32.00;20.43;;;7.30;99.90;;;;;;5053786;28;20173;-82
2020/12/17 04:24:47;;;;;;;38.17;21.97;;;7.30;99.90;;;;;;5054109;28;20865;-83
2020/12/17 04:27:13;;;;;;;29.80;18.77;;;7.40;99.90;;;;;;5054043;28;20416;-82
2020/12/17 04:29:39;;;;;;;30.30;18.97;;;7.40;99.90;;;;;;5053886;28;20510;-81
2020/12/17 04:32:05;;;;;;;32.77;20.20;;;7.40;99.90;;;;;;5053972;28;20444;-82
2020/12/17 04:34:31;;;;;;;37.63;19.07;;;7.40;99.90;;;;;;5053958;28;20443;-82
2020/12/17 04:36:57;;;;;;;34.63;19.20;;;7.30;99.90;;;;;;5053495;28;20659;-83
2020/12/17 04:39:23;;;;;;;33.97;20.17;;;7.30;99.90;;;;;;5053700;28;20204;-83
2020/12/17 04:41:52;;;;;;;36.53;20.20;;;7.30;99.90;;;;;;5053754;28;20900;-83
2020/12/17 04:44:18;;;;;;;30.40;17.43;;;7.30;99.90;;;;;;5053793;28;20201;-83
2020/12/17 04:46:52;;;;;;;30.83;18.67;;;7.30;99.90;;;;;;5035262;28;20465;-83
2020/12/17 04:49:19;;;;;;;30.33;18.40;;;7.30;99.90;;;;;;5053528;28;20475;-83
2020/12/17 04:51:48;;;;;;;34.13;19.60;;;7.30;99.90;;;;;;5053230;28;20458;-82
2020/12/17 04:54:15;;;;;;;38.93;18.53;;;7.30;99.90;;;;;;5035705;28;20461;-84
2020/12/17 04:56:41;;;;;;;31.50;18.70;;;7.30;99.90;;;;;;5053469;28;20435;-84
2020/12/17 04:59:08;;;;;;;32.23;19.70;;;7.30;99.90;;;;;;5053399;28;20427;-83
2020/12/17 05:01:41;;;;;;;35.23;20.07;;;7.30;99.90;;;;;;5053202;28;20463;-84
2020/12/17 05:04:10;;;;;;;28.00;18.07;;;7.30;99.90;;;;;;5053348;28;20459;-83
2020/12/17 05:06:38;;;;;;;33.70;19.23;;;7.30;99.90;;;;;;5035188;28;20739;-84
2020/12/17 05:09:05;;;;;;;32.80;19.47;;;7.30;99.90;;;;;;5053235;28;20459;-84
2020/12/17 05:11:31;;;;;;;31.60;18.80;;;7.30;99.90;;;;;;5053255;28;20833;-84
2020/12/17 05:13:56;;;;;;;36.50;19.17;;;7.30;99.90;;;;;;5053269;28;20507;-84
2020/12/17 05:16:23;;;;;;;34.73;19.23;;;7.30;99.90;;;;;;5053139;28;20526;-84
2020/12/17 05:18:49;;;;;;;33.33;18.77;;;7.30;99.90;;;;;;5061941;28;20181;-84
2020/12/17 05:21:15;;;;;;;28.40;17.37;;;7.30;99.90;;;;;;5052816;28;20966;-83
2020/12/17 05:23:44;;;;;;;31.33;18.37;;;7.40;99.90;;;;;;5053034;28;20173;-83
2020/12/17 05:26:09;;;;;;;32.23;18.23;;;7.40;99.90;;;;;;5053115;28;20164;-82
2020/12/17 05:28:37;;;;;;;29.83;17.53;;;7.40;99.90;;;;;;5052969;28;20452;-84
2020/12/17 05:31:02;;;;;;;32.80;17.90;;;7.40;99.90;;;;;;5052915;28;20184;-84
2020/12/17 05:33:28;;;;;;;27.87;16.37;;;7.40;99.90;;;;;;5053033;28;20404;-83
2020/12/17 05:35:53;;;;;;;31.37;17.70;;;7.40;99.90;;;;;;5052997;28;20660;-84
2020/12/17 05:38:25;;;;;;;29.13;17.40;;;7.30;99.90;;;;;;5034765;28;20267;-84
2020/12/17 05:40:51;;;;;;;32.67;18.57;;;7.40;99.90;;;;;;5052948;28;20181;-84
2020/12/17 05:43:22;;;;;;;31.13;18.83;;;7.30;99.90;;;;;;5052840;28;20546;-83
2020/12/17 05:45:48;;;;;;;28.93;16.83;;;7.40;99.90;;;;;;5052857;28;20440;-84
2020/12/17 05:48:14;;;;;;;29.40;17.03;;;7.30;99.90;;;;;;5052730;28;20937;-83
2020/12/17 05:51:01;;;;;;;28.27;16.80;;;7.40;99.90;;;;;;5052865;28;20170;-84
2020/12/17 05:53:29;;;;;;;27.80;18.90;;;7.40;99.90;;;;;;5052667;28;20430;-84
2020/12/17 05:56:05;;;;;;;31.83;17.37;;;7.40;99.90;;;;;;5052652;28;20454;-84
2020/12/17 05:58:41;;;;;;;23.40;15.20;;;7.40;99.90;;;;;;5021211;28;20413;-84
2020/12/17 06:01:12;;;;;;;27.77;18.23;;;7.40;99.90;;;;;;5056570;28;21006;-82
2020/12/17 06:03:39;;;;;;;28.27;18.60;;;7.40;99.90;;;;;;5056924;28;20771;-83
2020/12/17 06:06:07;;;;;;;29.33;17.63;;;7.40;99.90;;;;;;5056437;28;20550;-84
2020/12/17 06:08:41;;;;;;;25.60;16.73;;;7.40;99.90;;;;;;5057152;28;20521;-84
2020/12/17 06:11:11;;;;;;;27.90;18.20;;;7.40;99.90;;;;;;5066237;28;20411;-81
2020/12/17 06:13:38;;;;;;;26.00;16.13;;;7.40;99.90;;;;;;5066448;28;20406;-83
2020/12/17 06:16:05;;;;;;;25.40;16.60;;;7.50;99.90;;;;;;5065827;28;20920;-83
2020/12/17 06:18:56;;;;;;;31.07;16.50;;;7.50;99.90;;;;;;5064303;28;20408;-85
2020/12/17 06:21:26;;;;;;;27.20;15.90;;;7.50;99.90;;;;;;5050834;28;20439;-84
2020/12/17 06:24:01;;;;;;;28.93;17.20;;;7.50;99.90;;;;;;5066824;28;20435;-84
2020/12/17 06:26:27;;;;;;;28.63;16.90;;;7.50;99.90;;;;;;5064526;28;20414;-83
2020/12/17 06:28:53;;;;;;;27.40;15.20;;;7.50;99.90;;;;;;5065994;28;20474;-84
2020/12/17 06:31:27;;;;;;;29.17;16.50;;;7.50;99.90;;;;;;5063384;28;20186;-84
2020/12/17 06:34:18;;;;;;;31.10;16.77;;;7.50;99.90;;;;;;5055642;28;20509;-83
2020/12/17 06:36:44;;;;;;;27.50;17.70;;;7.50;99.90;;;;;;5055174;28;20916;-84
2020/12/17 06:39:10;;;;;;;24.60;15.60;;;7.40;99.90;;;;;;5055828;28;20423;-84
2020/12/17 06:41:36;;;;;;;24.53;16.23;;;7.40;99.90;;;;;;5038079;28;20510;-83
2020/12/17 06:44:32;;;;;;;26.00;16.70;;;7.50;99.90;;;;;;5055768;28;20507;-83
2020/12/17 06:46:59;;;;;;;26.53;18.23;;;7.40;99.90;;;;;;5055989;28;20417;-83
2020/12/17 06:49:27;;;;;;;27.17;16.00;;;7.40;99.90;;;;;;5037485;28;21011;-83
2020/12/17 06:52:09;;;;;;;30.17;16.97;;;7.50;99.90;;;;;;5055454;28;20411;-84
2020/12/17 06:54:39;;;;;;;27.40;15.83;;;7.50;99.90;;;;;;5055766;28;21004;-83
2020/12/17 06:57:06;;;;;;;30.13;17.60;;;7.50;99.90;;;;;;5074404;28;20411;-83
2020/12/17 06:59:31;;;;;;;29.00;19.40;;;7.50;99.90;;;;;;5075689;28;20461;-83
2020/12/17 07:01:57;;;;;;;28.37;16.97;;;7.60;99.90;;;;;;5074161;28;20462;-84
2020/12/17 07:04:46;;;;;;;27.20;14.70;;;7.60;99.90;;;;;;5057882;28;20165;-83
2020/12/17 07:07:16;;;;;;;27.10;16.10;;;7.60;99.90;;;;;;5075297;28;20179;-83
2020/12/17 07:09:49;;;;;;;20.37;14.07;;;7.60;99.90;;;;;;5074648;28;20479;-82
2020/12/17 07:12:35;;;;;;;23.70;15.53;;;7.60;99.90;;;;;;5075475;28;20419;-83
2020/12/17 07:15:03;;;;;;;22.33;13.97;;;7.60;99.90;;;;;;5075090;28;20788;-83
2020/12/17 07:17:29;;;;;;;24.10;14.33;;;7.60;99.90;;;;;;5075390;28;20407;-83
2020/12/17 07:19:54;;;;;;;25.27;16.30;;;7.60;99.90;;;;;;5075433;28;20421;-83
2020/12/17 07:22:20;;;;;;;25.97;13.90;;;7.60;99.90;;;;;;5064978;28;20634;-83
2020/12/17 07:24:47;;;;;;;23.40;15.60;;;7.60;99.90;;;;;;5055186;28;20201;-83
2020/12/17 07:27:24;;;;;;;27.27;14.93;;;7.70;99.90;;;;;;5055400;28;20170;-84
2020/12/17 07:29:58;;;;;;;22.23;14.10;;;7.70;99.90;;;;;;5055102;28;20459;-83
2020/12/17 07:32:34;;;;;;;26.00;13.63;;;7.70;99.90;;;;;;5055035;28;20461;-83
2020/12/17 07:35:21;;;;;;;25.60;14.40;;;7.70;99.90;;;;;;5055152;28;20411;-83
2020/12/17 07:38:00;;;;;;;20.47;13.57;;;7.70;99.90;;;;;;5054713;28;20407;-84
2020/12/17 07:40:30;;;;;;;20.97;12.93;;;7.70;99.90;;;;;;5055060;28;20408;-84
2020/12/17 07:43:15;;;;;;;24.63;13.63;;;7.70;99.90;;;;;;5054908;28;20450;-82
2020/12/17 07:45:46;;;;;;;20.70;12.40;;;7.70;99.90;;;;;;5037098;28;20413;-82
2020/12/17 07:48:33;;;;;;;23.47;13.60;;;7.70;99.90;;;;;;5054739;28;20466;-80
2020/12/17 07:51:04;;;;;;;29.07;15.30;;;7.80;99.90;;;;;;5054451;28;20435;-81
2020/12/17 07:53:30;;;;;;;24.07;14.10;;;7.80;99.90;;;;;;5054776;28;20416;-81
2020/12/17 07:55:56;;;;;;;26.10;15.10;;;7.80;99.90;;;;;;5054529;28;20404;-81
2020/12/17 07:58:22;;;;;;;22.47;14.00;;;7.90;99.90;;;;;;5054650;28;20642;-80
2020/12/17 08:00:47;;;;;;;21.83;14.97;;;7.90;99.90;;;;;;5054474;28;20213;-81
2020/12/17 08:03:13;;;;;;;22.80;13.60;;;7.90;99.90;;;;;;5054509;28;20443;-81
2020/12/17 08:05:39;;;;;;;23.20;14.80;;;7.90;99.90;;;;;;5054082;28;20170;-80
2020/12/17 08:08:05;;;;;;;18.40;13.00;;;7.90;99.90;;;;;;5054401;28;20206;-81
2020/12/17 08:10:37;;;;;;;20.37;14.33;;;8.00;99.90;;;;;;5054411;28;20177;-81
2020/12/17 08:13:02;;;;;;;19.47;12.63;;;8.00;99.90;;;;;;5054334;28;20169;-81
2020/12/17 08:15:28;;;;;;;35.33;17.47;;;8.10;99.90;;;;;;5054279;28;20416;-80
2020/12/17 08:17:57;;;;;;;26.50;16.80;;;8.10;99.90;;;;;;5054201;28;20192;-81
2020/12/17 08:20:25;;;;;;;27.57;16.60;;;8.10;99.90;;;;;;5053738;28;20165;-81
2020/12/17 08:22:52;;;;;;;26.93;16.53;;;8.10;99.90;;;;;;5053255;28;20416;-80
2020/12/17 08:25:23;;;;;;;21.83;14.70;;;8.10;99.90;;;;;;5036258;28;20416;-80
2020/12/17 08:27:51;;;;;;;23.23;13.20;;;8.10;99.90;;;;;;5054048;28;20405;-81
2020/12/17 08:30:21;;;;;;;19.20;11.80;;;8.20;99.90;;;;;;5062194;28;20439;-80
2020/12/17 08:32:56;;;;;;;19.23;13.93;;;8.20;99.90;;;;;;5072809;28;20931;-80
2020/12/17 08:35:26;;;;;;;21.07;12.60;;;8.20;99.90;;;;;;5074096;28;20423;-81
2020/12/17 08:37:55;;;;;;;18.73;12.63;;;8.30;99.90;;;;;;5073441;28;20770;-81
2020/12/17 08:40:24;;;;;;;17.60;11.87;;;8.30;99.90;;;;;;5073571;28;20503;-81
2020/12/17 08:43:09;;;;;;;20.57;13.63;;;8.40;99.90;;;;;;5073801;28;20407;-81
2020/12/17 08:45:39;;;;;;;18.13;11.30;;;8.40;99.90;;;;;;5073726;28;20427;-81
2020/12/17 08:48:10;;;;;;;15.83;11.90;;;8.50;99.90;;;;;;5072372;28;20470;-81
2020/12/17 08:50:38;;;;;;;15.80;10.87;;;8.60;99.90;;;;;;5073222;28;20774;-81
2020/12/17 08:53:24;;;;;;;16.43;10.00;;;8.60;99.90;;;;;;5073477;28;20416;-80
2020/12/17 08:56:11;;;;;;;12.13;9.00;;;8.70;99.90;;;;;;5069054;28;20525;-81
2020/12/17 08:59:03;;;;;;;16.20;10.60;;;8.80;99.90;;;;;;5073708;28;20427;-83
2020/12/17 09:01:31;;;;;;;14.60;9.40;;;8.80;99.90;;;;;;5066020;28;20565;-84
2020/12/17 09:03:57;;;;;;;15.50;10.70;;;8.90;99.90;;;;;;5053442;28;20420;-83
2020/12/17 09:06:30;;;;;;;14.70;9.97;;;8.90;99.90;;;;;;5035149;28;20427;-83
2020/12/17 09:09:18;;;;;;;17.60;10.53;;;8.90;99.90;;;;;;5053234;28;20472;-83
2020/12/17 09:11:46;;;;;;;15.13;10.03;;;9.00;99.90;;;;;;5053213;28;20416;-84
2020/12/17 09:14:19;;;;;;;15.70;10.57;;;9.10;99.90;;;;;;5053286;28;20428;-84
2020/12/17 09:16:46;;;;;;;12.90;10.00;;;9.10;99.90;;;;;;5061947;28;20494;-84
2020/12/17 09:19:12;;;;;;;17.90;10.40;;;9.20;99.90;;;;;;5053197;28;20408;-84
2020/12/17 09:21:56;;;;;;;15.50;10.53;;;9.30;99.90;;;;;;5034915;28;20421;-84
2020/12/17 09:24:45;;;;;;;14.80;10.30;;;9.30;99.90;;;;;;5053147;28;20205;-84
2020/12/17 09:27:20;;;;;;;13.43;9.07;;;9.30;99.90;;;;;;5053146;28;20459;-85
2020/12/17 09:30:14;;;;;;;16.57;10.50;;;9.40;99.90;;;;;;5052888;28;20495;-84
2020/12/17 09:32:57;;;;;;;17.47;10.00;;;9.40;99.90;;;;;;5052558;28;20555;-83
2020/12/17 09:35:30;;;;;;;14.80;10.03;;;9.50;99.90;;;;;;5062974;28;20430;-84
2020/12/17 09:38:13;;;;;;;12.07;8.20;;;9.40;99.90;;;;;;5055439;28;20415;-85
2020/12/17 09:40:45;;;;;;;15.33;10.80;;;9.50;99.90;;;;;;5052941;28;20413;-84
2020/12/17 09:43:12;;;;;;;14.83;9.50;;;9.50;99.90;;;;;;5066848;28;20426;-84
2020/12/17 09:45:40;;;;;;;14.97;9.13;;;9.60;99.90;;;;;;5057042;28;20424;-84
2020/12/17 09:48:32;;;;;;;17.47;11.33;;;9.40;99.90;;;;;;5068049;28;20465;-85
2020/12/17 09:51:03;;;;;;;13.43;8.87;;;9.40;99.90;;;;;;5034853;28;20438;-84
2020/12/17 09:53:31;;;;;;;17.87;9.20;;;9.50;99.90;;;;;;5063920;28;20424;-84
2020/12/17 09:55:57;;;;;;;13.73;9.20;;;9.50;99.90;;;;;;5072809;28;20403;-85
2020/12/17 09:58:22;;;;;;;14.43;9.93;;;9.50;99.90;;;;;;5071724;28;20780;-83
2020/12/17 10:00:48;;;;;;;13.43;9.60;;;9.50;99.90;;;;;;5052576;28;20218;-85
2020/12/17 10:03:14;;;;;;;14.97;11.00;;;9.60;99.90;;;;;;5052682;28;20265;-83
2020/12/17 10:05:40;;;;;;;14.90;9.47;;;9.60;99.90;;;;;;5052363;28;20638;-85
2020/12/17 10:08:06;;;;;;;17.93;9.70;;;9.60;99.90;;;;;;5060283;28;20251;-85
2020/12/17 10:10:34;;;;;;;13.87;9.53;;;9.60;99.90;;;;;;5053359;28;20945;-84
2020/12/17 10:13:00;;;;;;;15.20;9.33;;;9.50;99.90;;;;;;5052601;28;20412;-85
2020/12/17 10:15:26;;;;;;;14.50;9.30;;;9.60;99.90;;;;;;5052493;28;20921;-85
2020/12/17 10:17:52;;;;;;;13.30;9.47;;;9.50;99.90;;;;;;5052514;28;20417;-84
2020/12/17 10:20:19;;;;;;;11.63;9.50;;;9.50;99.90;;;;;;5052146;28;20477;-84
2020/12/17 10:22:45;;;;;;;19.03;11.07;;;9.50;99.90;;;;;;5052485;28;20412;-84
2020/12/17 10:25:11;;;;;;;14.70;9.30;;;9.50;99.90;;;;;;5052454;28;20554;-84
2020/12/17 10:27:37;;;;;;;11.90;8.67;;;9.50;99.90;;;;;;5052438;28;20451;-84
2020/12/17 10:30:04;;;;;;;12.80;9.17;;;9.50;99.90;;;;;;5052375;28;20504;-84
2020/12/17 10:32:34;;;;;;;12.50;9.03;;;9.50;99.90;;;;;;5052428;28;20233;-84
2020/12/17 10:35:00;;;;;;;16.10;11.00;;;9.50;99.90;;;;;;5052259;28;20420;-84
2020/12/17 10:37:26;;;;;;;18.47;11.13;;;9.50;99.90;;;;;;5052072;28;20503;-84
2020/12/17 10:39:53;;;;;;;18.70;10.33;;;9.50;99.90;;;;;;5052184;28;20428;-84
2020/12/17 10:42:19;;;;;;;15.30;11.43;;;9.50;99.90;;;;;;5052190;28;20468;-83
2020/12/17 10:44:44;;;;;;;17.97;11.47;;;9.50;99.90;;;;;;5053459;28;20453;-84
2020/12/17 10:47:10;;;;;;;15.47;11.67;;;9.50;99.90;;;;;;5055928;28;20225;-84
2020/12/17 10:49:35;;;;;;;15.47;9.67;;;9.50;99.90;;;;;;5055877;28;20225;-84
2020/12/17 10:52:02;;;;;;;12.37;8.87;;;9.60;99.90;;;;;;5066759;28;20181;-84
2020/12/17 10:54:28;;;;;;;16.40;11.47;;;9.60;99.90;;;;;;5072923;28;20649;-84
2020/12/17 10:56:54;;;;;;;17.13;12.07;;;9.70;99.90;;;;;;5075745;28;20422;-84
2020/12/17 10:59:19;;;;;;;16.27;11.30;;;9.70;99.90;;;;;;5075735;28;20905;-84
2020/12/17 11:01:45;;;;;;;15.30;11.10;;;9.70;99.90;;;;;;5073904;28;20233;-84
2020/12/17 11:04:10;;;;;;;17.80;11.53;;;9.70;99.90;;;;;;5075642;28;20174;-84
2020/12/17 11:06:36;;;;;;;16.40;11.33;;;9.70;99.90;;;;;;5057003;28;20646;-84
2020/12/17 11:09:02;;;;;;;18.17;11.20;;;9.70;99.90;;;;;;5075458;28;20209;-84
2020/12/17 11:11:28;;;;;;;17.43;11.60;;;9.80;99.90;;;;;;5075151;28;20175;-84
2020/12/17 11:13:54;;;;;;;15.10;10.90;;;9.80;99.90;;;;;;5057451;28;20481;-84
2020/12/17 11:16:20;;;;;;;17.30;10.20;;;9.80;99.90;;;;;;5075360;28;20250;-84
2020/12/17 11:18:46;;;;;;;20.70;11.10;;;9.90;99.90;;;;;;5074511;28;20189;-84
2020/12/17 11:21:18;;;;;;;16.17;11.97;;;9.90;99.90;;;;;;5057050;28;20431;-84
2020/12/17 11:23:44;;;;;;;15.30;11.03;;;9.90;99.90;;;;;;5057361;28;20828;-84
2020/12/17 11:26:09;;;;;;;18.53;11.83;;;9.90;99.90;;;;;;5067887;28;20466;-83
2020/12/17 11:28:35;;;;;;;14.43;10.93;;;9.90;99.90;;;;;;5074263;28;20213;-85
2020/12/17 11:31:01;;;;;;;15.40;11.10;;;9.90;99.90;;;;;;5075174;28;20202;-83
2020/12/17 11:33:27;;;;;;;15.43;11.20;;;10.00;99.90;;;;;;5075112;28;20167;-83
2020/12/17 11:35:53;;;;;;;17.30;11.47;;;10.00;99.90;;;;;;5056760;28;20523;-84
2020/12/17 11:38:19;;;;;;;16.23;11.17;;;10.00;99.90;;;;;;5075080;28;20929;-83
2020/12/17 11:40:44;;;;;;;16.50;12.50;;;10.00;99.90;;;;;;5074915;28;20416;-83
2020/12/17 11:43:10;;;;;;;17.27;12.50;;;10.00;99.90;;;;;;5074853;28;20549;-84
2020/12/17 11:45:36;;;;;;;16.90;10.10;;;10.00;99.90;;;;;;5074770;28;20656;-83
2020/12/17 11:48:01;;;;;;;14.70;11.37;;;10.00;99.90;;;;;;5073886;28;20181;-83
2020/12/17 11:50:27;;;;;;;19.40;12.77;;;10.00;99.90;;;;;;5073504;28;20686;-83
2020/12/17 11:52:53;;;;;;;12.17;9.23;;;10.00;99.90;;;;;;5058530;28;20214;-83
2020/12/17 11:55:18;;;;;;;17.57;10.87;;;10.00;99.90;;;;;;5056682;28;20333;-83
2020/12/17 11:57:48;;;;;;;14.00;10.50;;;10.00;99.90;;;;;;5057800;28;20247;-83
2020/12/17 12:00:15;;;;;;;12.90;10.80;;;10.00;99.90;;;;;;5073655;28;20539;-83
2020/12/17 12:02:41;;;;;;;15.87;11.93;;;10.00;99.90;;;;;;5074226;28;20424;-83
2020/12/17 12:05:08;;;;;;;14.77;10.70;;;10.00;99.90;;;;;;5068273;28;20444;-83
2020/12/17 12:07:34;;;;;;;14.37;10.37;;;10.00;99.90;;;;;;5073571;28;20519;-83
2020/12/17 12:10:00;;;;;;;18.47;10.67;;;9.90;99.90;;;;;;5073661;28;20551;-83
2020/12/17 12:12:26;;;;;;;13.43;9.50;;;10.00;99.90;;;;;;5074085;28;20921;-83
2020/12/17 12:14:51;;;;;;;14.70;11.03;;;10.00;99.90;;;;;;5074217;28;20424;-83
2020/12/17 12:17:17;;;;;;;16.53;11.80;;;10.00;99.90;;;;;;5073929;28;20568;-83
2020/12/17 12:19:42;;;;;;;17.87;11.57;;;10.00;99.90;;;;;;5073804;28;20514;-83
2020/12/17 12:22:08;;;;;;;14.63;11.43;;;10.00;99.90;;;;;;5073333;28;20174;-83
2020/12/17 12:24:34;;;;;;;16.60;11.47;;;10.10;99.90;;;;;;5073653;28;20165;-83
2020/12/17 12:26:59;;;;;;;13.93;10.87;;;10.20;99.90;;;;;;5055657;28;20265;-83
2020/12/17 12:29:26;;;;;;;16.60;10.23;;;10.30;99.90;;;;;;5073533;28;20206;-83
2020/12/17 12:31:53;;;;;;;15.53;10.70;;;10.30;99.90;;;;;;5072130;28;20225;-83
2020/12/17 12:34:19;;;;;;;15.67;11.27;;;10.30;99.90;;;;;;5073617;28;20416;-83
2020/12/17 12:36:56;;;;;;;14.67;10.50;;;10.40;99.90;;;;;;5072381;28;20513;-83
2020/12/17 12:39:22;;;;;;;10.07;9.07;;;10.50;99.90;;;;;;5073197;28;20801;-85
2020/12/17 12:41:49;;;;;;;11.93;9.97;;;10.50;99.90;;;;;;5054603;28;20619;-83